createdAt,value
2023-01-27T00:01:19.198Z,60.40
2023-01-27T00:03:49.947Z,60.40
2023-01-27T00:06:23.617Z,60.40
2023-01-27T00:08:51.321Z,60.50
2023-01-27T00:11:42.488Z,60.50
2023-01-27T00:14:10.566Z,60.50
2023-01-27T00:16:42.383Z,60.50
2023-01-27T00:19:13.397Z,60.50
2023-01-27T00:22:14.128Z,60.50
2023-01-27T00:24:44.736Z,60.50
2023-01-27T00:27:15.331Z,60.50
2023-01-27T00:29:46.646Z,60.60
2023-01-27T00:32:34.812Z,60.60
2023-01-27T00:35:07.676Z,60.50
2023-01-27T00:37:37.561Z,60.50
2023-01-27T00:40:09.977Z,60.60
2023-01-27T00:42:41.520Z,60.60
2023-01-27T00:45:27.772Z,60.60
2023-01-27T00:47:58.045Z,60.60
2023-01-27T00:50:26.078Z,60.60
2023-01-27T00:52:53.904Z,60.60
2023-01-27T00:55:23.121Z,60.50
2023-01-27T00:57:51.086Z,60.70
2023-01-27T01:00:21.426Z,60.60
2023-01-27T01:02:49.619Z,60.60
2023-01-27T01:05:23.163Z,61.20
2023-01-27T01:07:53.488Z,60.70
2023-01-27T01:10:23.511Z,60.60
2023-01-27T01:12:53.692Z,60.60
2023-01-27T01:15:24.739Z,60.70
2023-01-27T01:17:57.359Z,60.60
2023-01-27T01:20:27.533Z,60.80
2023-01-27T01:22:56.771Z,60.70
2023-01-27T01:25:28.765Z,60.80
2023-01-27T01:27:59.456Z,60.80
2023-01-27T01:30:31.660Z,60.80
2023-01-27T01:33:01.611Z,60.80
2023-01-27T01:35:30.595Z,60.80
2023-01-27T01:37:59.857Z,60.80
2023-01-27T01:40:32.239Z,60.80
2023-01-27T01:43:06.968Z,60.80
2023-01-27T01:45:45.772Z,60.70
2023-01-27T01:48:23.651Z,60.70
2023-01-27T01:51:06.436Z,60.60
2023-01-27T01:53:41.784Z,60.70
2023-01-27T01:56:17.448Z,60.70
2023-01-27T01:58:53.558Z,60.70
2023-01-27T02:01:29.456Z,60.60
2023-01-27T02:04:00.138Z,60.60
2023-01-27T02:06:28.614Z,60.70
2023-01-27T02:08:59.594Z,60.70
2023-01-27T02:11:28.967Z,60.70
2023-01-27T02:14:03.000Z,60.70
2023-01-27T02:16:35.892Z,60.80
2023-01-27T02:19:13.072Z,60.70
2023-01-27T02:21:42.032Z,60.80
2023-01-27T02:24:12.928Z,60.60
2023-01-27T02:26:49.371Z,60.50
2023-01-27T02:29:19.788Z,60.50
2023-01-27T02:31:50.077Z,60.60
2023-01-27T02:34:24.082Z,60.60
2023-01-27T02:37:10.359Z,60.50
2023-01-27T02:39:43.156Z,60.60
2023-01-27T02:42:15.270Z,60.60
2023-01-27T02:44:44.064Z,60.60
2023-01-27T02:47:13.157Z,60.60
2023-01-27T02:49:42.395Z,60.70
2023-01-27T02:52:09.199Z,60.70
2023-01-27T02:54:43.957Z,60.80
2023-01-27T02:57:14.976Z,60.70
2023-01-27T02:59:45.044Z,60.80
2023-01-27T03:02:18.261Z,60.80
2023-01-27T03:04:49.790Z,60.70
2023-01-27T03:07:20.947Z,60.80
2023-01-27T03:09:49.696Z,60.60
2023-01-27T03:15:23.831Z,60.60
2023-01-27T03:18:10.956Z,60.70
2023-01-27T03:20:43.988Z,60.70
2023-01-27T03:23:16.997Z,60.70
2023-01-27T03:25:50.344Z,60.70
2023-01-27T03:28:19.849Z,60.80
2023-01-27T03:30:48.681Z,60.70
2023-01-27T03:33:21.477Z,60.70
2023-01-27T03:35:50.863Z,60.70
2023-01-27T03:38:39.827Z,60.70
2023-01-27T03:41:28.752Z,60.70
2023-01-27T03:44:16.727Z,60.80
2023-01-27T03:46:48.392Z,60.80
2023-01-27T03:49:18.412Z,60.90
2023-01-27T03:51:47.853Z,60.80
2023-01-27T03:54:19.188Z,60.80
2023-01-27T03:56:48.919Z,60.90
2023-01-27T03:59:19.092Z,60.80
2023-01-27T04:01:50.727Z,60.80
2023-01-27T04:04:43.685Z,60.80
2023-01-27T04:07:15.506Z,60.80
2023-01-27T04:09:43.687Z,60.70
2023-01-27T04:12:12.457Z,60.80
2023-01-27T04:14:43.085Z,60.70
2023-01-27T04:17:18.199Z,60.70
2023-01-27T04:19:48.964Z,60.60
2023-01-27T04:22:23.085Z,60.70
2023-01-27T04:24:58.136Z,60.70
2023-01-27T04:27:30.402Z,60.80
2023-01-27T04:32:46.308Z,60.70
2023-01-27T04:35:21.524Z,60.70
2023-01-27T04:37:52.193Z,60.80
2023-01-27T04:40:23.499Z,60.80
2023-01-27T04:42:57.088Z,60.80
2023-01-27T04:45:25.550Z,60.90
2023-01-27T04:47:56.341Z,60.80
2023-01-27T04:50:25.566Z,60.90
2023-01-27T04:52:58.053Z,60.90
2023-01-27T04:55:30.133Z,60.90
2023-01-27T04:58:08.053Z,60.90
2023-01-27T05:00:37.535Z,60.90
2023-01-27T05:03:08.385Z,61.10
2023-01-27T05:05:40.876Z,61.00
2023-01-27T05:08:10.942Z,61.10
2023-01-27T05:10:39.572Z,61.00
2023-01-27T05:13:11.574Z,61.00
2023-01-27T05:15:42.129Z,61.00
2023-01-27T05:18:10.120Z,61.00
2023-01-27T05:20:38.097Z,61.00
2023-01-27T05:23:28.747Z,61.00
2023-01-27T05:26:00.267Z,61.00
2023-01-27T05:28:28.323Z,61.00
2023-01-27T05:31:08.697Z,61.00
2023-01-27T05:33:43.252Z,61.10
2023-01-27T05:36:15.230Z,61.70
2023-01-27T05:38:47.884Z,61.10
2023-01-27T05:44:04.291Z,61.00
2023-01-27T05:46:36.023Z,61.00
2023-01-27T05:49:07.721Z,61.00
2023-01-27T05:52:03.055Z,61.00
2023-01-27T05:54:34.516Z,60.90
2023-01-27T05:57:04.774Z,61.00
2023-01-27T05:59:34.503Z,60.90
2023-01-27T06:02:06.581Z,60.90
2023-01-27T06:04:37.208Z,60.80
2023-01-27T06:07:08.795Z,60.80
2023-01-27T06:09:36.745Z,60.80
2023-01-27T06:12:10.561Z,60.80
2023-01-27T06:14:41.966Z,60.90
2023-01-27T06:17:12.273Z,60.80
2023-01-27T06:19:42.815Z,60.80
2023-01-27T06:22:12.204Z,60.80
2023-01-27T06:24:38.871Z,60.80
2023-01-27T06:27:09.412Z,60.80
2023-01-27T06:29:39.609Z,60.90
2023-01-27T06:32:09.069Z,60.90
2023-01-27T06:34:40.999Z,61.00
2023-01-27T06:37:12.837Z,61.00
2023-01-27T06:39:42.408Z,61.10
2023-01-27T06:42:09.941Z,61.20
2023-01-27T06:44:39.368Z,61.30
2023-01-27T06:47:07.404Z,61.40
2023-01-27T06:49:35.727Z,61.60
2023-01-27T06:52:02.426Z,61.60
2023-01-27T06:54:32.923Z,61.80
2023-01-27T06:57:04.892Z,61.80
2023-01-27T06:59:35.681Z,61.80
2023-01-27T07:02:04.543Z,62.20
2023-01-27T07:04:34.937Z,62.10
2023-01-27T07:07:04.113Z,62.00
2023-01-27T07:09:51.390Z,61.90
2023-01-27T07:12:21.072Z,62.00
2023-01-27T07:14:50.670Z,61.80
2023-01-27T07:17:23.250Z,61.80
2023-01-27T07:19:53.591Z,61.70
2023-01-27T07:22:25.195Z,61.80
2023-01-27T07:24:54.452Z,61.90
2023-01-27T07:27:25.354Z,61.80
2023-01-27T07:29:53.424Z,61.90
2023-01-27T07:32:22.505Z,62.00
2023-01-27T07:34:53.011Z,62.00
2023-01-27T07:37:23.968Z,62.10
2023-01-27T07:39:54.033Z,62.80
2023-01-27T07:42:23.620Z,63.40
2023-01-27T07:44:53.440Z,63.60
2023-01-27T07:47:26.415Z,64.20
2023-01-27T07:49:58.504Z,64.10
2023-01-27T07:52:29.436Z,63.70
2023-01-27T07:54:57.503Z,63.40
2023-01-27T07:57:29.557Z,63.00
2023-01-27T08:00:00.014Z,62.60
2023-01-27T08:02:31.017Z,62.20
2023-01-27T08:05:00.911Z,62.10
2023-01-27T08:07:32.457Z,61.80
2023-01-27T08:10:04.079Z,61.90
2023-01-27T08:12:39.811Z,61.10
2023-01-27T08:15:11.875Z,60.30
2023-01-27T08:17:43.662Z,59.40
2023-01-27T08:20:15.880Z,58.70
2023-01-27T08:22:47.861Z,57.80
2023-01-27T08:25:19.209Z,57.10
2023-01-27T08:27:53.451Z,56.60
2023-01-27T08:30:24.695Z,56.60
2023-01-27T08:32:58.253Z,55.20
2023-01-27T08:35:27.411Z,54.60
2023-01-27T08:37:58.050Z,54.10
2023-01-27T08:40:29.300Z,53.70
2023-01-27T08:42:59.253Z,53.30
2023-01-27T08:45:28.358Z,52.90
2023-01-27T08:47:58.766Z,52.40
2023-01-27T08:50:28.907Z,52.00
2023-01-27T08:53:01.945Z,51.70
2023-01-27T08:55:34.662Z,51.30
2023-01-27T08:58:06.916Z,50.90
2023-01-27T09:00:37.543Z,50.60
2023-01-27T09:03:05.589Z,50.20
2023-01-27T09:05:37.585Z,49.80
2023-01-27T09:08:08.166Z,49.70
2023-01-27T09:10:41.484Z,49.60
2023-01-27T09:13:12.718Z,49.30
2023-01-27T09:15:43.504Z,49.10
2023-01-27T09:18:19.529Z,49.00
2023-01-27T09:20:49.907Z,48.90
2023-01-27T09:23:20.737Z,48.70
2023-01-27T09:25:53.235Z,48.50
2023-01-27T09:28:27.479Z,48.30
2023-01-27T09:31:03.407Z,48.10
2023-01-27T09:33:34.317Z,48.00
2023-01-27T09:36:16.777Z,47.90
2023-01-27T09:38:54.391Z,47.90
2023-01-27T09:41:40.481Z,47.90
2023-01-27T09:44:37.884Z,47.70
2023-01-27T09:47:30.981Z,47.40
2023-01-27T09:50:13.049Z,47.40
2023-01-27T09:53:05.357Z,47.30
2023-01-27T09:56:07.457Z,47.20
2023-01-27T09:59:07.288Z,47.40
2023-01-27T10:01:50.415Z,47.40
2023-01-27T10:04:51.603Z,47.60
2023-01-27T10:07:43.562Z,47.40
2023-01-27T10:10:51.101Z,47.30
2023-01-27T10:13:52.455Z,47.30
2023-01-27T10:17:02.843Z,46.90
2023-01-27T10:20:25.935Z,46.80
2023-01-27T10:23:26.128Z,47.80
2023-01-27T10:26:28.550Z,48.30
2023-01-27T10:29:11.806Z,48.50
2023-01-27T10:32:10.141Z,48.40
2023-01-27T10:34:48.337Z,48.10
2023-01-27T10:38:04.431Z,48.00
2023-01-27T10:41:00.663Z,47.80
2023-01-27T10:43:57.258Z,47.60
2023-01-27T10:47:03.808Z,47.60
2023-01-27T10:49:42.705Z,47.50
2023-01-27T10:52:32.081Z,47.20
2023-01-27T10:55:14.817Z,47.80
2023-01-27T10:58:12.130Z,47.10
2023-01-27T11:04:26.702Z,47.30
2023-01-27T11:06:58.514Z,47.20
2023-01-27T11:10:06.683Z,47.30
2023-01-27T11:12:41.304Z,47.10
2023-01-27T11:15:30.584Z,47.20
2023-01-27T11:18:28.702Z,47.40
2023-01-27T11:21:05.007Z,47.30
2023-01-27T11:23:45.782Z,47.40
2023-01-27T11:26:18.851Z,47.30
2023-01-27T11:29:05.589Z,47.40
2023-01-27T11:31:58.901Z,46.90
2023-01-27T11:34:50.879Z,47.10
2023-01-27T11:37:50.560Z,47.60
2023-01-27T11:40:39.172Z,48.00
2023-01-27T11:43:06.231Z,48.40
2023-01-27T11:45:39.563Z,48.40
2023-01-27T11:50:57.930Z,48.70
2023-01-27T11:53:39.103Z,49.20
2023-01-27T11:56:16.827Z,49.30
2023-01-27T11:59:11.179Z,49.80
2023-01-27T12:01:48.893Z,50.00
2023-01-27T12:04:51.372Z,50.20
2023-01-27T12:07:57.139Z,50.70
2023-01-27T12:10:45.488Z,50.80
2023-01-27T12:13:21.481Z,50.60
2023-01-27T12:16:07.716Z,50.50
2023-01-27T12:18:47.102Z,50.20
2023-01-27T12:21:16.797Z,50.20
2023-01-27T12:23:54.158Z,50.20
2023-01-27T12:26:39.595Z,50.00
2023-01-27T12:29:37.349Z,49.90
2023-01-27T12:32:18.405Z,49.90
2023-01-27T12:34:56.238Z,49.90
2023-01-27T12:37:34.538Z,49.80
2023-01-27T12:40:16.812Z,49.60
2023-01-27T12:43:09.490Z,49.50
2023-01-27T12:45:39.133Z,49.50
2023-01-27T12:48:20.454Z,49.20
2023-01-27T12:50:57.004Z,49.10
2023-01-27T12:53:28.363Z,49.10
2023-01-27T12:56:20.986Z,49.10
2023-01-27T12:59:01.934Z,49.10
2023-01-27T13:01:42.023Z,49.10
2023-01-27T13:04:22.285Z,49.30
2023-01-27T13:07:11.460Z,50.00
2023-01-27T13:10:09.449Z,50.20
2023-01-27T13:12:56.709Z,50.20
2023-01-27T13:15:36.605Z,50.20
2023-01-27T13:18:24.261Z,50.70
2023-01-27T13:21:00.386Z,50.70
2023-01-27T13:23:39.881Z,50.70
2023-01-27T13:26:39.993Z,51.00
2023-01-27T13:29:23.518Z,51.00
2023-01-27T13:32:24.133Z,51.10
2023-01-27T13:35:26.043Z,51.20
2023-01-27T13:38:34.909Z,51.50
2023-01-27T13:41:15.602Z,51.90
2023-01-27T13:44:12.561Z,52.10
2023-01-27T13:46:44.497Z,51.90
2023-01-27T13:49:42.763Z,51.10
2023-01-27T13:52:17.132Z,51.30
2023-01-27T13:54:50.318Z,51.20
2023-01-27T13:57:56.433Z,51.20
2023-01-27T14:00:49.588Z,51.00
2023-01-27T14:03:43.679Z,51.00
2023-01-27T14:06:31.813Z,50.70
2023-01-27T14:09:32.169Z,50.80
2023-01-27T14:13:00.079Z,51.00
2023-01-27T14:15:45.409Z,50.90
2023-01-27T14:18:40.231Z,50.90
2023-01-27T14:21:47.496Z,51.10
2023-01-27T14:24:45.073Z,51.40
2023-01-27T14:27:25.176Z,51.70
2023-01-27T14:30:15.310Z,51.50
2023-01-27T14:33:11.920Z,52.00
2023-01-27T14:36:16.201Z,51.80
2023-01-27T14:38:49.234Z,52.00
2023-01-27T14:42:03.955Z,52.20
2023-01-27T14:45:04.815Z,52.40
2023-01-27T14:47:58.222Z,52.40
2023-01-27T14:50:40.373Z,52.40
2023-01-27T14:53:24.085Z,52.70
2023-01-27T14:56:31.354Z,52.80
2023-01-27T14:59:34.248Z,53.40
2023-01-27T15:02:30.067Z,53.40
2023-01-27T15:05:32.854Z,53.60
2023-01-27T15:08:29.515Z,53.70
2023-01-27T15:11:24.885Z,53.60
2023-01-27T15:14:27.950Z,54.20
2023-01-27T15:17:07.812Z,54.10
2023-01-27T15:19:43.313Z,54.30
2023-01-27T15:22:15.111Z,54.30
2023-01-27T15:25:19.684Z,54.30
2023-01-27T15:27:52.194Z,54.00
2023-01-27T15:30:40.367Z,54.60
2023-01-27T15:33:46.929Z,54.10
2023-01-27T15:36:27.694Z,54.00
2023-01-27T15:39:25.955Z,54.40
2023-01-27T15:42:11.598Z,54.40
2023-01-27T15:44:41.954Z,54.40
2023-01-27T15:47:28.931Z,54.80
2023-01-27T15:50:09.233Z,54.70
2023-01-27T15:52:48.970Z,55.10
2023-01-27T15:55:54.413Z,55.50
2023-01-27T15:58:48.929Z,55.70
2023-01-27T16:01:34.341Z,55.50
2023-01-27T16:04:32.187Z,55.90
2023-01-27T16:07:06.490Z,56.20
2023-01-27T16:09:59.868Z,55.90
2023-01-27T16:12:40.998Z,56.00
2023-01-27T16:15:44.692Z,56.10
2023-01-27T16:18:18.519Z,56.40
2023-01-27T16:21:06.700Z,56.30
2023-01-27T16:23:55.111Z,56.20
2023-01-27T16:26:48.666Z,56.30
2023-01-27T16:29:42.379Z,56.40
2023-01-27T16:32:42.732Z,56.40
2023-01-27T16:35:23.829Z,56.50
2023-01-27T16:38:33.398Z,56.30
2023-01-27T16:41:12.879Z,56.20
2023-01-27T16:43:49.965Z,56.90
2023-01-27T16:46:47.727Z,56.60
2023-01-27T16:49:27.268Z,56.40
2023-01-27T16:52:16.152Z,56.60
2023-01-27T16:54:50.158Z,56.60
2023-01-27T16:57:44.453Z,56.60
2023-01-27T17:00:29.664Z,56.40
2023-01-27T17:05:53.224Z,56.90
2023-01-27T17:08:28.325Z,56.60
2023-01-27T17:11:03.967Z,56.80
2023-01-27T17:14:00.274Z,57.10
2023-01-27T17:16:40.250Z,57.20
2023-01-27T17:19:32.504Z,57.10
2023-01-27T17:22:31.090Z,57.20
2023-01-27T17:25:04.100Z,57.40
2023-01-27T17:27:47.889Z,57.50
2023-01-27T17:30:24.779Z,57.50
2023-01-27T17:32:57.731Z,58.00
2023-01-27T17:35:36.670Z,57.60
2023-01-27T17:38:17.053Z,57.30
2023-01-27T17:40:48.627Z,56.90
2023-01-27T17:43:43.228Z,56.90
2023-01-27T17:46:22.354Z,56.70
2023-01-27T17:49:22.630Z,56.80
2023-01-27T17:51:53.581Z,56.80
2023-01-27T17:54:45.769Z,56.80
2023-01-27T17:57:38.575Z,56.80
2023-01-27T18:00:21.682Z,56.70
2023-01-27T18:03:20.460Z,56.70
2023-01-27T18:05:53.505Z,56.70
2023-01-27T18:08:24.234Z,56.70
2023-01-27T18:10:52.674Z,56.70
2023-01-27T18:13:23.503Z,56.70
2023-01-27T18:16:11.470Z,56.60
2023-01-27T18:18:43.093Z,56.80
2023-01-27T18:21:25.564Z,56.90
2023-01-27T18:24:00.887Z,57.00
2023-01-27T18:26:44.681Z,57.00
2023-01-27T18:29:38.768Z,57.20
2023-01-27T18:32:25.155Z,57.30
2023-01-27T18:34:57.123Z,57.30
2023-01-27T18:37:39.056Z,57.50
2023-01-27T18:40:28.760Z,57.50
2023-01-27T18:42:57.809Z,57.70
2023-01-27T18:45:29.518Z,57.70
2023-01-27T18:48:00.080Z,57.70
2023-01-27T18:50:31.656Z,57.70
2023-01-27T18:53:01.074Z,57.70
2023-01-27T18:55:30.075Z,57.70
2023-01-27T18:58:05.236Z,57.80
2023-01-27T19:01:00.671Z,57.70
2023-01-27T19:03:33.783Z,57.70
2023-01-27T19:06:02.261Z,57.70
2023-01-27T19:11:19.003Z,57.80
2023-01-27T19:13:48.802Z,57.90
2023-01-27T19:16:20.670Z,57.90
2023-01-27T19:18:52.052Z,57.70
2023-01-27T19:21:21.117Z,57.90
2023-01-27T19:23:50.554Z,57.80
2023-01-27T19:26:24.884Z,57.90
2023-01-27T19:29:06.304Z,58.00
2023-01-27T19:31:36.933Z,58.00
2023-01-27T19:34:20.043Z,57.90
2023-01-27T19:36:48.930Z,58.00
2023-01-27T19:39:22.874Z,58.00
2023-01-27T19:41:54.758Z,58.10
2023-01-27T19:44:23.805Z,58.10
2023-01-27T19:46:51.123Z,58.10
2023-01-27T19:49:22.232Z,58.20
2023-01-27T19:51:51.527Z,58.20
2023-01-27T19:54:21.893Z,58.30
2023-01-27T19:56:52.428Z,58.30
2023-01-27T19:59:20.627Z,58.40
2023-01-27T20:01:50.883Z,58.30
2023-01-27T20:04:21.550Z,58.20
2023-01-27T20:06:53.763Z,58.20
2023-01-27T20:09:25.437Z,58.80
2023-01-27T20:11:57.454Z,58.20
2023-01-27T20:14:34.902Z,58.30
2023-01-27T20:17:03.003Z,58.30
2023-01-27T20:19:31.859Z,58.40
2023-01-27T20:22:03.834Z,58.50
2023-01-27T20:24:34.583Z,58.60
2023-01-27T20:27:04.474Z,59.20
2023-01-27T20:29:36.802Z,58.50
2023-01-27T20:32:11.267Z,58.50
2023-01-27T20:34:43.218Z,58.40
2023-01-27T20:37:11.981Z,58.40
2023-01-27T20:39:40.157Z,58.40
2023-01-27T20:42:11.750Z,58.40
2023-01-27T20:44:41.225Z,58.40
2023-01-27T20:50:04.824Z,58.40
2023-01-27T20:52:36.549Z,58.40
2023-01-27T20:55:17.491Z,58.50
2023-01-27T20:57:50.791Z,58.40
2023-01-27T21:00:32.150Z,58.40
2023-01-27T21:03:07.240Z,58.40
2023-01-27T21:05:41.934Z,58.50
2023-01-27T21:08:17.774Z,58.60
2023-01-27T21:10:49.306Z,58.60
2023-01-27T21:13:21.036Z,58.50
2023-01-27T21:15:54.741Z,58.50
2023-01-27T21:18:25.436Z,58.50
2023-01-27T21:21:08.368Z,58.60
2023-01-27T21:23:40.113Z,58.40
2023-01-27T21:26:12.121Z,58.50
2023-01-27T21:28:42.755Z,58.60
2023-01-27T21:31:18.536Z,58.60
2023-01-27T21:33:53.095Z,58.50
2023-01-27T21:36:22.417Z,58.60
2023-01-27T21:38:50.436Z,60.30
2023-01-27T21:41:40.522Z,60.10
2023-01-27T21:44:40.227Z,60.70
2023-01-27T21:47:13.783Z,62.00
2023-01-27T21:50:03.097Z,61.40
2023-01-27T21:52:42.766Z,61.60
2023-01-27T21:55:33.719Z,61.70
2023-01-27T21:58:01.144Z,61.60
2023-01-27T22:00:33.155Z,61.40
2023-01-27T22:03:04.569Z,61.30
2023-01-27T22:05:37.812Z,61.10
2023-01-27T22:08:09.720Z,61.10
2023-01-27T22:10:40.469Z,61.00
2023-01-27T22:13:11.805Z,61.00
2023-01-27T22:15:42.862Z,61.10
2023-01-27T22:18:13.538Z,60.80
2023-01-27T22:20:42.746Z,60.80
2023-01-27T22:23:12.843Z,60.70
2023-01-27T22:25:44.809Z,60.70
2023-01-27T22:28:17.148Z,60.70
2023-01-27T22:30:45.950Z,60.70
2023-01-27T22:33:16.536Z,60.70
2023-01-27T22:35:47.297Z,60.40
2023-01-27T22:38:25.155Z,60.00
2023-01-27T22:41:02.469Z,59.60
2023-01-27T22:43:31.726Z,59.50
2023-01-27T22:46:06.497Z,59.40
2023-01-27T22:48:36.937Z,59.30
2023-01-27T22:51:06.716Z,58.90
2023-01-27T22:53:35.740Z,58.80
2023-01-27T22:56:15.036Z,58.90
2023-01-27T22:58:47.248Z,59.00
2023-01-27T23:01:17.438Z,58.90
2023-01-27T23:03:44.275Z,58.90
2023-01-27T23:06:12.999Z,58.90
2023-01-27T23:08:42.884Z,59.00
2023-01-27T23:11:12.561Z,59.00
2023-01-27T23:13:42.709Z,59.10
2023-01-27T23:16:11.342Z,59.40
2023-01-27T23:18:39.430Z,59.40
2023-01-27T23:21:09.519Z,59.60
2023-01-27T23:23:41.218Z,59.60
2023-01-27T23:26:11.334Z,59.70
2023-01-27T23:28:39.717Z,59.80
2023-01-27T23:31:14.413Z,59.80
2023-01-27T23:33:46.304Z,59.90
2023-01-27T23:36:17.336Z,59.80
2023-01-27T23:38:46.246Z,59.90
2023-01-27T23:41:27.056Z,60.00
2023-01-27T23:43:58.573Z,59.90
2023-01-27T23:46:28.980Z,59.90
2023-01-27T23:49:00.216Z,60.10
2023-01-27T23:51:29.014Z,60.00
2023-01-27T23:53:56.820Z,60.70
2023-01-27T23:56:25.143Z,60.20
2023-01-27T23:58:53.137Z,60.10
